createdAt,value
2023-01-07T00:00:51.249Z,100007.97
2023-01-07T00:03:19.431Z,100018.53
2023-01-07T00:05:47.225Z,100009.69
2023-01-07T00:08:14.941Z,100014.88
2023-01-07T00:10:42.742Z,100007.75
2023-01-07T00:13:12.343Z,100002.41
2023-01-07T00:15:40.472Z,100006.78
2023-01-07T00:18:08.260Z,100007.50
2023-01-07T00:20:36.063Z,100003.03
2023-01-07T00:23:03.807Z,99999.38
2023-01-07T00:25:31.761Z,99995.84
2023-01-07T00:27:59.893Z,99996.84
2023-01-07T00:30:27.723Z,100006.53
2023-01-07T00:33:05.072Z,100008.25
2023-01-07T00:35:32.978Z,100003.63
2023-01-07T00:38:01.004Z,99997.31
2023-01-07T00:40:28.823Z,100003.38
2023-01-07T00:43:01.480Z,99998.03
2023-01-07T00:45:29.237Z,100001.66
2023-01-07T00:47:57.297Z,99989.06
2023-01-07T00:50:25.329Z,100005.06
2023-01-07T00:52:52.959Z,99986.41
2023-01-07T00:55:21.137Z,99994.38
2023-01-07T00:57:48.820Z,99989.06
2023-01-07T01:00:16.725Z,99987.25
2023-01-07T01:02:44.529Z,99987.97
2023-01-07T01:05:12.229Z,99985.19
2023-01-07T01:07:39.982Z,99984.22
2023-01-07T01:10:07.720Z,99981.28
2023-01-07T01:12:35.903Z,99976.81
2023-01-07T01:15:03.900Z,99965.16
2023-01-07T01:17:31.627Z,99975.00
2023-01-07T01:19:59.239Z,99972.34
2023-01-07T01:22:26.946Z,99966.16
2023-01-07T01:24:54.879Z,99972.34
2023-01-07T01:27:22.846Z,99962.50
2023-01-07T01:29:50.514Z,99971.47
2023-01-07T01:32:18.178Z,99970.63
2023-01-07T01:34:45.848Z,99957.44
2023-01-07T01:37:14.406Z,99958.25
2023-01-07T01:39:42.419Z,99968.81
2023-01-07T01:42:10.031Z,99967.00
2023-01-07T01:44:37.692Z,99967.84
2023-01-07T01:47:05.419Z,99974.25
2023-01-07T01:49:33.339Z,99965.56
2023-01-07T01:52:01.245Z,99956.56
2023-01-07T01:54:28.999Z,99966.41
2023-01-07T01:56:56.591Z,99952.22
2023-01-07T01:59:24.221Z,99954.16
2023-01-07T02:01:52.046Z,99959.50
2023-01-07T02:04:20.108Z,99959.50
2023-01-07T02:06:47.750Z,99962.03
2023-01-07T02:09:15.434Z,99960.34
2023-01-07T02:11:43.122Z,99961.06
2023-01-07T02:14:10.785Z,99966.16
2023-01-07T02:16:38.938Z,99966.16
2023-01-07T02:19:06.588Z,99958.03
2023-01-07T02:21:34.200Z,99956.19
2023-01-07T02:24:01.851Z,99950.03
2023-01-07T02:26:29.630Z,99951.84
2023-01-07T02:28:59.869Z,99952.69
2023-01-07T02:31:27.595Z,99944.69
2023-01-07T02:33:55.279Z,99957.06
2023-01-07T02:36:22.884Z,99952.69
2023-01-07T02:38:50.683Z,99947.38
2023-01-07T02:41:19.034Z,99945.69
2023-01-07T02:43:46.640Z,99942.16
2023-01-07T02:46:14.338Z,99946.63
2023-01-07T02:48:41.973Z,99948.47
2023-01-07T02:51:09.950Z,99945.91
2023-01-07T02:53:37.986Z,99933.56
2023-01-07T02:56:05.618Z,99932.69
2023-01-07T02:58:33.255Z,99930.03
2023-01-07T03:01:01.115Z,99931.00
2023-01-07T03:03:30.310Z,99933.56
2023-01-07T03:05:58.299Z,99924.59
2023-01-07T03:08:25.932Z,99917.44
2023-01-07T03:10:53.542Z,99917.31
2023-01-07T03:13:21.244Z,99917.31
2023-01-07T03:15:49.137Z,99917.31
2023-01-07T03:18:17.147Z,99914.78
2023-01-07T03:20:44.714Z,99906.91
2023-01-07T03:23:12.330Z,99902.53
2023-01-07T03:25:40.361Z,99906.91
2023-01-07T03:28:07.941Z,99904.34
2023-01-07T03:30:35.955Z,99900.88
2023-01-07T03:33:03.513Z,99900.97
2023-01-07T03:35:31.059Z,99899.28
2023-01-07T03:37:58.695Z,99894.06
2023-01-07T03:40:26.249Z,99896.75
2023-01-07T03:42:53.119Z,99897.72
2023-01-07T03:45:20.792Z,99894.22
2023-01-07T03:47:48.357Z,99886.34
2023-01-07T03:50:15.941Z,99881.84
2023-01-07T03:52:43.683Z,99880.31
2023-01-07T03:55:11.536Z,99882.22
2023-01-07T03:57:39.097Z,99873.53
2023-01-07T04:00:06.774Z,99877.06
2023-01-07T04:02:34.354Z,99873.63
2023-01-07T04:05:02.072Z,99875.34
2023-01-07T04:07:30.371Z,99863.13
2023-01-07T04:09:57.945Z,99856.09
2023-01-07T04:12:25.498Z,99860.59
2023-01-07T04:14:53.086Z,99848.09
2023-01-07T04:17:20.873Z,99851.72
2023-01-07T04:19:48.900Z,99848.25
2023-01-07T04:22:16.567Z,99843.03
2023-01-07T04:24:44.151Z,99839.66
2023-01-07T04:27:11.798Z,99833.63
2023-01-07T04:29:41.667Z,99824.75
2023-01-07T04:32:09.211Z,99833.84
2023-01-07T04:34:36.775Z,99835.09
2023-01-07T04:37:04.431Z,99834.50
2023-01-07T04:39:31.992Z,99829.56
2023-01-07T04:41:59.662Z,99830.75
2023-01-07T04:44:27.653Z,99828.38
2023-01-07T04:46:55.231Z,99824.13
2023-01-07T04:49:22.821Z,99822.56
2023-01-07T04:51:50.818Z,99818.91
2023-01-07T04:54:18.584Z,99819.63
2023-01-07T04:56:46.580Z,99814.19
2023-01-07T04:59:14.197Z,99814.78
2023-01-07T05:01:41.812Z,99820.69
2023-01-07T05:04:09.463Z,99821.41
2023-01-07T05:06:37.317Z,99807.13
2023-01-07T05:09:05.252Z,99813.19
2023-01-07T05:11:32.808Z,99816.69
2023-01-07T05:14:00.832Z,99805.31
2023-01-07T05:16:28.534Z,99806.41
2023-01-07T05:18:56.442Z,99802.06
2023-01-07T05:21:24.386Z,99788.03
2023-01-07T05:23:52.108Z,99797.38
2023-01-07T05:26:19.682Z,99795.22
2023-01-07T05:28:47.313Z,99796.53
2023-01-07T05:31:15.165Z,99790.88
2023-01-07T05:33:43.144Z,99782.19
2023-01-07T05:36:11.178Z,99785.81
2023-01-07T05:38:38.734Z,99788.00
2023-01-07T05:41:06.307Z,99776.66
2023-01-07T05:43:34.096Z,99781.25
2023-01-07T05:46:02.046Z,99773.50
2023-01-07T05:48:29.690Z,99783.44
2023-01-07T05:50:57.282Z,99770.63
2023-01-07T05:53:24.838Z,99775.25
2023-01-07T05:55:52.619Z,99772.56
2023-01-07T05:58:20.585Z,99768.94
2023-01-07T06:00:48.147Z,99770.75
2023-01-07T06:03:15.729Z,99768.22
2023-01-07T06:05:43.361Z,99764.44
2023-01-07T06:08:11.106Z,99767.84
2023-01-07T06:10:38.692Z,99765.03
2023-01-07T06:13:06.384Z,99758.63
2023-01-07T06:15:34.055Z,99759.22
2023-01-07T06:18:01.636Z,99751.97
2023-01-07T06:20:34.619Z,99755.34
2023-01-07T06:23:03.230Z,99756.06
2023-01-07T06:25:30.811Z,99749.88
2023-01-07T06:27:58.577Z,99749.06
2023-01-07T06:30:26.162Z,99751.00
2023-01-07T06:32:53.949Z,99741.34
2023-01-07T06:35:21.734Z,99751.97
2023-01-07T06:37:49.282Z,99746.66
2023-01-07T06:40:17.359Z,99730.69
2023-01-07T06:42:44.983Z,99739.38
2023-01-07T06:45:12.591Z,99739.81
2023-01-07T06:47:40.580Z,99742.25
2023-01-07T06:50:08.202Z,99737.63
2023-01-07T06:52:35.756Z,99737.25
2023-01-07T06:55:03.336Z,99734.19
2023-01-07T06:57:31.134Z,99728.63
2023-01-07T06:59:59.076Z,99735.66
2023-01-07T07:02:27.233Z,99738.03
2023-01-07T07:04:55.019Z,99727.38
2023-01-07T07:07:22.560Z,99732.59
2023-01-07T07:09:50.766Z,99724.50
2023-01-07T07:12:19.818Z,99732.47
2023-01-07T07:14:47.423Z,99729.66
2023-01-07T07:17:15.005Z,99728.97
2023-01-07T07:19:42.632Z,99726.19
2023-01-07T07:22:10.506Z,99722.81
2023-01-07T07:24:38.920Z,99719.16
2023-01-07T07:27:06.521Z,99718.31
2023-01-07T07:29:34.145Z,99720.84
2023-01-07T07:32:01.761Z,99716.50
2023-01-07T07:34:29.419Z,99718.19
2023-01-07T07:36:57.036Z,99715.53
2023-01-07T07:39:24.615Z,99712.84
2023-01-07T07:41:52.246Z,99710.19
2023-01-07T07:44:19.820Z,99709.34
2023-01-07T07:46:47.667Z,99703.88
2023-01-07T07:49:15.681Z,99709.22
2023-01-07T07:51:43.304Z,99711.88
2023-01-07T07:54:10.880Z,99708.34
2023-01-07T07:56:38.526Z,99702.19
2023-01-07T07:59:06.332Z,99706.56
2023-01-07T08:01:37.051Z,99697.69
2023-01-07T08:04:04.888Z,99701.22
2023-01-07T08:06:34.363Z,99707.25
2023-01-07T08:09:01.981Z,99703.78
2023-01-07T08:11:29.636Z,99702.91
2023-01-07T08:13:57.626Z,99697.59
2023-01-07T08:16:25.400Z,99700.94
2023-01-07T08:18:53.092Z,99707.97
2023-01-07T08:21:20.788Z,99695.50
2023-01-07T08:23:48.509Z,99689.19
2023-01-07T08:26:16.192Z,99683.88
2023-01-07T08:28:46.592Z,99681.09
2023-01-07T08:31:14.411Z,99686.41
2023-01-07T08:33:42.100Z,99679.41
2023-01-07T08:36:22.055Z,99674.06
2023-01-07T08:38:50.880Z,99671.41
2023-01-07T08:41:18.927Z,99667.88
2023-01-07T08:43:46.551Z,99673.22
2023-01-07T08:46:14.481Z,99668.75
2023-01-07T08:48:42.171Z,99673.22
2023-01-07T08:51:09.809Z,99672.38
2023-01-07T08:53:37.579Z,99672.25
2023-01-07T08:56:05.183Z,99673.09
2023-01-07T08:58:33.072Z,99677.44
2023-01-07T09:01:00.917Z,99664.00
2023-01-07T09:03:29.092Z,99669.19
2023-01-07T09:05:56.776Z,99662.88
2023-01-07T09:08:24.551Z,99659.97
2023-01-07T09:10:53.717Z,99662.34
2023-01-07T09:13:21.457Z,99659.44
2023-01-07T09:15:49.549Z,99656.50
2023-01-07T09:18:17.196Z,99653.00
2023-01-07T09:20:44.925Z,99652.84
2023-01-07T09:23:12.877Z,99655.41
2023-01-07T09:25:40.637Z,99656.22
2023-01-07T09:28:08.672Z,99651.75
2023-01-07T09:30:37.616Z,99647.28
2023-01-07T09:33:05.593Z,99646.31
2023-01-07T09:35:33.554Z,99648.97
2023-01-07T09:38:01.445Z,99647.13
2023-01-07T09:40:29.446Z,99642.78
2023-01-07T09:42:57.117Z,99640.13
2023-01-07T09:45:24.995Z,99635.75
2023-01-07T09:47:53.093Z,99636.63
2023-01-07T09:50:22.720Z,99635.66
2023-01-07T09:52:51.957Z,99632.13
2023-01-07T09:55:20.774Z,99632.13
2023-01-07T09:57:48.479Z,99627.66
2023-01-07T10:00:16.475Z,99627.66
2023-01-07T10:02:44.223Z,99624.00
2023-01-07T10:05:12.407Z,99627.38
2023-01-07T10:07:40.167Z,99630.75
2023-01-07T10:10:08.032Z,99622.75
2023-01-07T10:12:35.996Z,99605.66
2023-01-07T10:15:03.884Z,99610.56
2023-01-07T10:17:32.048Z,99596.00
2023-01-07T10:19:59.793Z,99600.66
2023-01-07T10:22:27.710Z,99598.16
2023-01-07T10:24:55.659Z,99597.34
2023-01-07T10:27:23.557Z,99595.72
2023-01-07T10:29:52.812Z,99581.53
2023-01-07T10:32:20.915Z,99570.06
2023-01-07T10:34:49.111Z,99572.34
2023-01-07T10:37:18.693Z,99561.38
2023-01-07T10:39:46.519Z,99558.28
2023-01-07T10:42:14.751Z,99552.34
2023-01-07T10:44:42.726Z,99560.78
2023-01-07T10:47:10.627Z,99556.53
2023-01-07T10:49:38.994Z,99555.13
2023-01-07T10:52:06.890Z,99551.69
2023-01-07T10:54:35.398Z,99534.34
2023-01-07T10:57:03.324Z,99538.13
2023-01-07T10:59:31.134Z,99533.41
2023-01-07T11:01:59.223Z,99532.59
2023-01-07T11:04:27.369Z,99523.88
2023-01-07T11:06:55.521Z,99523.56
2023-01-07T11:09:23.179Z,99518.66
2023-01-07T11:11:51.009Z,99519.50
2023-01-07T11:14:19.492Z,99509.97
2023-01-07T11:16:47.462Z,99490.06
2023-01-07T11:19:16.353Z,99486.94
2023-01-07T11:21:44.819Z,99484.31
2023-01-07T11:24:12.852Z,99484.25
2023-01-07T11:26:41.028Z,99472.22
2023-01-07T11:29:08.943Z,99458.69
2023-01-07T11:31:37.201Z,99448.28
2023-01-07T11:34:05.081Z,99444.19
2023-01-07T11:36:32.876Z,99435.31
2023-01-07T11:39:00.936Z,99425.47
2023-01-07T11:41:29.110Z,99421.09
2023-01-07T11:43:57.743Z,99405.13
2023-01-07T11:46:27.036Z,99408.19
2023-01-07T11:48:56.419Z,99406.00
2023-01-07T11:51:24.710Z,99403.03
2023-01-07T11:53:52.524Z,99391.97
2023-01-07T11:56:20.505Z,99392.97
2023-01-07T11:58:48.360Z,99384.13
2023-01-07T12:01:16.196Z,99390.41
2023-01-07T12:03:46.064Z,99377.28
2023-01-07T12:06:14.279Z,99361.88
2023-01-07T12:08:42.778Z,99369.19
2023-01-07T12:11:10.636Z,99362.13
2023-01-07T12:13:38.767Z,99349.78
2023-01-07T12:16:06.690Z,99353.63
2023-01-07T12:18:34.715Z,99346.19
2023-01-07T12:21:03.105Z,99345.66
2023-01-07T12:23:31.053Z,99340.63
2023-01-07T12:25:59.304Z,99336.13
2023-01-07T12:28:27.550Z,99328.88
2023-01-07T12:30:55.562Z,99336.31
2023-01-07T12:33:23.956Z,99324.91
2023-01-07T12:35:52.163Z,99307.25
2023-01-07T12:38:20.110Z,99305.94
2023-01-07T12:40:48.138Z,99305.78
2023-01-07T12:43:16.221Z,99290.03
2023-01-07T12:45:44.148Z,99313.13
2023-01-07T12:48:12.012Z,99298.38
2023-01-07T12:50:40.076Z,99299.75
2023-01-07T12:53:07.880Z,99287.06
2023-01-07T12:55:35.723Z,99292.44
2023-01-07T12:58:04.088Z,99268.53
2023-01-07T13:00:32.027Z,99259.41
2023-01-07T13:02:59.869Z,99264.50
2023-01-07T13:05:28.002Z,99249.44
2023-01-07T13:07:56.294Z,99253.56
2023-01-07T13:10:24.767Z,99245.69
2023-01-07T13:12:52.715Z,99259.47
2023-01-07T13:15:21.977Z,99256.09
2023-01-07T13:17:50.263Z,99249.84
2023-01-07T13:20:18.451Z,99266.56
2023-01-07T13:22:46.691Z,99260.97
2023-01-07T13:25:14.608Z,99262.81
2023-01-07T13:27:42.731Z,99260.69
2023-01-07T13:30:12.416Z,99254.84
2023-01-07T13:32:40.265Z,99243.19
2023-01-07T13:35:09.194Z,99246.63
2023-01-07T13:37:37.080Z,99249.03
2023-01-07T13:40:05.017Z,99236.47
2023-01-07T13:42:33.179Z,99228.94
2023-01-07T13:45:01.912Z,99223.28
2023-01-07T13:47:30.194Z,99221.59
2023-01-07T13:49:58.170Z,99216.69
2023-01-07T13:52:26.499Z,99226.47
2023-01-07T13:54:54.614Z,99222.47
2023-01-07T13:57:22.717Z,99218.16
2023-01-07T13:59:50.976Z,99204.03
2023-01-07T14:02:18.995Z,99201.38
2023-01-07T14:04:47.084Z,99205.41
2023-01-07T14:07:15.202Z,99204.97
2023-01-07T14:09:43.067Z,99198.00
2023-01-07T14:12:11.620Z,99208.63
2023-01-07T14:14:39.797Z,99204.06
2023-01-07T14:17:07.628Z,99207.78
2023-01-07T14:19:35.576Z,99188.16
2023-01-07T14:22:03.518Z,99201.66
2023-01-07T14:24:31.770Z,99187.16
2023-01-07T14:26:59.802Z,99193.22
2023-01-07T14:29:27.648Z,99202.19
2023-01-07T14:31:55.681Z,99190.44
2023-01-07T14:34:23.697Z,99184.19
2023-01-07T14:36:52.662Z,99172.88
2023-01-07T14:39:20.659Z,99174.06
2023-01-07T14:41:48.568Z,99183.97
2023-01-07T14:44:16.772Z,99169.69
2023-01-07T14:46:44.729Z,99174.78
2023-01-07T14:49:13.235Z,99173.69
2023-01-07T14:51:41.202Z,99160.91
2023-01-07T14:54:09.032Z,99156.16
2023-01-07T14:56:37.333Z,99156.75
2023-01-07T14:59:05.293Z,99159.88
2023-01-07T15:01:35.548Z,99169.13
2023-01-07T15:04:03.628Z,99161.69
2023-01-07T15:06:31.559Z,99141.81
2023-01-07T15:09:17.060Z,99149.25
2023-01-07T15:12:02.625Z,99150.50
2023-01-07T15:14:47.870Z,99160.09
2023-01-07T15:17:15.965Z,99153.66
2023-01-07T15:19:43.850Z,99160.25
2023-01-07T15:22:12.345Z,99144.69
2023-01-07T15:24:40.198Z,99142.47
2023-01-07T15:27:07.996Z,99144.72
2023-01-07T15:29:36.287Z,99142.47
2023-01-07T15:32:04.224Z,99134.06
2023-01-07T15:34:32.585Z,99136.03
2023-01-07T15:37:00.576Z,99138.31
2023-01-07T15:39:28.790Z,99128.91
2023-01-07T15:41:56.897Z,99144.19
2023-01-07T15:44:24.955Z,99133.81
2023-01-07T15:46:53.222Z,99126.81
2023-01-07T15:49:21.280Z,99120.94
2023-01-07T15:51:49.541Z,99118.69
2023-01-07T15:54:17.495Z,99113.94
2023-01-07T15:56:45.502Z,99118.69
2023-01-07T15:59:13.901Z,99118.00
2023-01-07T16:01:42.321Z,99119.13
2023-01-07T16:04:10.176Z,99121.78
2023-01-07T16:06:39.581Z,99108.66
2023-01-07T16:09:07.871Z,99107.78
2023-01-07T16:11:35.925Z,99103.59
2023-01-07T16:14:03.781Z,99111.84
2023-01-07T16:16:31.581Z,99102.47
2023-01-07T16:18:59.864Z,99108.06
2023-01-07T16:21:27.877Z,99094.91
2023-01-07T16:23:56.473Z,99093.22
2023-01-07T16:26:25.086Z,99077.25
2023-01-07T16:28:53.106Z,99083.44
2023-01-07T16:31:21.181Z,99086.22
2023-01-07T16:33:49.073Z,99070.28
2023-01-07T16:36:17.450Z,99070.41
2023-01-07T16:38:45.204Z,99070.69
2023-01-07T16:41:13.015Z,99065.38
2023-01-07T16:43:41.165Z,99071.81
2023-01-07T16:46:09.505Z,99074.47
2023-01-07T16:48:37.740Z,99070.00
2023-01-07T16:51:05.765Z,99067.47
2023-01-07T16:53:33.806Z,99065.22
2023-01-07T16:56:01.913Z,99060.88
2023-01-07T16:58:29.934Z,99073.91
2023-01-07T17:00:58.485Z,99072.66
2023-01-07T17:03:26.497Z,99061.16
2023-01-07T17:05:54.645Z,99063.84
2023-01-07T17:08:24.139Z,99064.53
2023-01-07T17:10:52.537Z,99060.06
2023-01-07T17:13:21.304Z,99046.06
2023-01-07T17:15:49.150Z,99041.69
2023-01-07T17:18:16.952Z,99041.00
2023-01-07T17:20:45.148Z,99029.38
2023-01-07T17:23:13.164Z,99030.25
2023-01-07T17:25:41.705Z,99024.78
2023-01-07T17:28:09.600Z,99015.94
2023-01-07T17:30:37.881Z,99010.34
2023-01-07T17:33:06.076Z,99017.34
2023-01-07T17:35:33.980Z,99007.53
2023-01-07T17:38:02.442Z,99002.91
2023-01-07T17:40:30.174Z,99024.06
2023-01-07T17:43:15.271Z,99007.53
2023-01-07T17:45:43.576Z,99008.53
2023-01-07T17:48:11.814Z,99007.97
2023-01-07T17:50:39.787Z,99025.59
2023-01-07T17:53:07.731Z,99008.66
2023-01-07T17:55:35.553Z,99022.94
2023-01-07T17:58:03.649Z,99025.59
2023-01-07T18:00:33.883Z,99027.44
2023-01-07T18:03:01.940Z,99022.94
2023-01-07T18:05:29.891Z,99027.44
2023-01-07T18:07:57.803Z,99016.81
2023-01-07T18:10:25.680Z,99026.59
2023-01-07T18:12:53.779Z,99024.34
2023-01-07T18:15:21.676Z,99026.28
2023-01-07T18:17:49.444Z,99022.53
2023-01-07T18:20:17.502Z,99023.94
2023-01-07T18:22:45.384Z,99015.66
2023-01-07T18:25:13.801Z,99014.41
2023-01-07T18:27:41.889Z,99005.16
2023-01-07T18:30:09.781Z,98994.94
2023-01-07T18:32:37.719Z,98990.03
2023-01-07T18:35:07.285Z,98991.69
2023-01-07T18:37:35.545Z,98994.34
2023-01-07T18:40:03.832Z,98993.22
2023-01-07T18:42:31.802Z,98984.81
2023-01-07T18:44:59.674Z,98982.84
2023-01-07T18:47:27.736Z,98978.94
2023-01-07T18:49:55.921Z,98976.09
2023-01-07T18:52:23.791Z,98972.63
2023-01-07T18:54:51.697Z,98960.97
2023-01-07T18:57:19.672Z,98959.84
2023-01-07T18:59:47.854Z,98961.53
2023-01-07T19:02:16.323Z,98962.06
2023-01-07T19:04:44.210Z,98956.06
2023-01-07T19:07:12.042Z,98945.44
2023-01-07T19:09:39.993Z,98931.81
2023-01-07T19:12:08.460Z,98948.19
2023-01-07T19:14:36.624Z,98930.78
2023-01-07T19:17:04.627Z,98934.97
2023-01-07T19:19:40.104Z,98920.50
2023-01-07T19:22:16.053Z,98919.38
2023-01-07T19:24:44.660Z,98918.25
2023-01-07T19:27:12.680Z,98921.91
2023-01-07T19:29:40.417Z,98917.25
2023-01-07T19:32:08.420Z,98915.31
2023-01-07T19:34:36.253Z,98903.50
2023-01-07T19:37:04.414Z,98902.69
2023-01-07T19:39:32.329Z,98908.16
2023-01-07T19:42:00.192Z,98898.50
2023-01-07T19:44:28.105Z,98915.44
2023-01-07T19:46:56.277Z,98935.91
2023-01-07T19:49:24.659Z,98936.06
2023-01-07T19:51:52.669Z,98916.44
2023-01-07T19:54:20.606Z,98910.81
2023-01-07T19:56:48.428Z,98910.38
2023-01-07T19:59:16.563Z,98894.94
2023-01-07T20:01:45.960Z,98908.09
2023-01-07T20:04:13.942Z,98875.00
2023-01-07T20:06:41.966Z,98860.69
2023-01-07T20:09:11.368Z,98846.53
2023-01-07T20:11:39.617Z,98869.69
2023-01-07T20:14:08.476Z,98874.84
2023-01-07T20:16:37.226Z,98868.09
2023-01-07T20:19:05.614Z,98853.78
2023-01-07T20:21:33.518Z,98888.25
2023-01-07T20:24:02.662Z,98893.28
2023-01-07T20:26:30.911Z,98895.09
2023-01-07T20:28:58.730Z,98910.41
2023-01-07T20:31:26.657Z,98893.75
2023-01-07T20:33:56.017Z,98900.34
2023-01-07T20:36:24.035Z,98897.13
2023-01-07T20:38:52.008Z,98893.66
2023-01-07T20:41:19.845Z,98898.97
2023-01-07T20:43:47.821Z,98899.66
2023-01-07T20:46:16.169Z,98896.00
2023-01-07T20:48:44.965Z,98894.88
2023-01-07T20:51:13.160Z,98896.41
2023-01-07T20:53:41.155Z,98891.75
2023-01-07T20:56:09.115Z,98893.28
2023-01-07T20:58:36.954Z,98896.50
2023-01-07T21:01:05.049Z,98899.00
2023-01-07T21:03:33.328Z,98883.03
2023-01-07T21:06:01.322Z,98868.00
2023-01-07T21:08:29.624Z,98880.50
2023-01-07T21:10:57.390Z,98888.50
2023-01-07T21:13:25.539Z,98900.16
2023-01-07T21:15:53.906Z,98903.81
2023-01-07T21:18:21.722Z,98883.44
2023-01-07T21:20:49.501Z,98922.44
2023-01-07T21:23:17.501Z,98892.28
2023-01-07T21:25:45.386Z,98886.13
2023-01-07T21:28:13.765Z,98879.13
2023-01-07T21:30:42.306Z,98893.28
2023-01-07T21:33:10.125Z,98864.00
2023-01-07T21:35:37.924Z,98876.44
2023-01-07T21:38:06.240Z,98874.38
2023-01-07T21:40:34.705Z,98872.63
2023-01-07T21:43:02.626Z,98867.22
2023-01-07T21:45:30.732Z,98878.19
2023-01-07T21:47:58.580Z,98874.66
2023-01-07T21:50:26.351Z,98873.31
2023-01-07T21:52:55.071Z,98862.78
2023-01-07T21:55:22.880Z,98869.09
2023-01-07T21:57:50.738Z,98873.44
2023-01-07T22:00:18.755Z,98864.91
2023-01-07T22:02:46.669Z,98871.38
2023-01-07T22:05:14.910Z,98863.00
2023-01-07T22:07:43.023Z,98860.63
2023-01-07T22:10:10.953Z,98855.63
2023-01-07T22:12:38.804Z,98846.63
2023-01-07T22:15:08.521Z,98865.13
2023-01-07T22:17:36.653Z,98863.00
2023-01-07T22:20:04.556Z,98854.72
2023-01-07T22:22:32.538Z,98858.91
2023-01-07T22:25:00.503Z,98858.78
2023-01-07T22:27:28.525Z,98842.16
2023-01-07T22:29:58.340Z,98839.91
2023-01-07T22:32:26.219Z,98848.44
2023-01-07T22:34:54.127Z,98846.31
2023-01-07T22:37:24.208Z,98848.97
2023-01-07T22:39:55.791Z,98850.50
2023-01-07T22:42:23.993Z,98844.19
2023-01-07T22:44:52.002Z,98849.66
2023-01-07T22:47:20.021Z,98837.66
2023-01-07T22:49:48.001Z,98845.22
2023-01-07T22:52:16.023Z,98853.69
2023-01-07T22:54:44.272Z,98863.78
2023-01-07T22:57:12.137Z,98868.44
2023-01-07T22:59:40.506Z,98866.44
2023-01-07T23:02:08.387Z,98857.16
2023-01-07T23:04:36.209Z,98854.22
2023-01-07T23:07:04.557Z,98851.25
2023-01-07T23:09:32.375Z,98851.09
2023-01-07T23:12:01.086Z,98861.59
2023-01-07T23:14:29.013Z,98847.84
2023-01-07T23:16:57.208Z,98855.50
2023-01-07T23:19:25.676Z,98842.06
2023-01-07T23:21:54.170Z,98852.41
2023-01-07T23:24:21.918Z,98842.59
2023-01-07T23:26:49.842Z,98834.44
2023-01-07T23:29:17.895Z,98830.94
2023-01-07T23:31:46.254Z,98827.44
2023-01-07T23:34:14.137Z,98823.94
2023-01-07T23:36:41.885Z,98820.44
2023-01-07T23:39:09.665Z,98817.78
2023-01-07T23:41:37.782Z,98813.44
2023-01-07T23:44:06.689Z,98819.75
2023-01-07T23:46:34.570Z,98811.63
2023-01-07T23:49:02.380Z,98812.63
2023-01-07T23:51:30.220Z,98810.78
2023-01-07T23:53:58.235Z,98812.63
2023-01-07T23:56:26.833Z,98802.94
2023-01-07T23:58:54.857Z,98805.75
